createdAt,value
2023-01-17T00:05:07.500Z,1.73
2023-01-17T00:10:40.639Z,1.72
2023-01-17T00:16:11.618Z,1.70
2023-01-17T00:22:01.605Z,1.70
2023-01-17T00:27:32.808Z,1.67
2023-01-17T00:33:03.985Z,1.64
2023-01-17T00:38:36.603Z,1.64
2023-01-17T00:44:27.284Z,1.62
2023-01-17T00:50:16.904Z,1.60
2023-01-17T00:56:06.576Z,1.59
2023-01-17T01:01:56.724Z,1.57
2023-01-17T01:07:45.999Z,1.56
2023-01-17T01:13:35.782Z,1.53
2023-01-17T01:19:25.113Z,1.55
2023-01-17T01:25:14.471Z,1.56
2023-01-17T01:31:04.165Z,1.59
2023-01-17T01:36:35.309Z,1.62
2023-01-17T01:42:10.060Z,1.63
2023-01-17T01:47:41.613Z,1.64
2023-01-17T01:53:12.801Z,1.64
2023-01-17T01:58:44.478Z,1.64
2023-01-17T02:04:15.432Z,1.67
2023-01-17T02:09:46.481Z,1.67
2023-01-17T02:15:17.684Z,1.71
2023-01-17T02:20:58.874Z,1.72
2023-01-17T02:26:37.875Z,1.73
2023-01-17T02:32:16.897Z,1.73
2023-01-17T02:37:53.836Z,1.71
2023-01-17T02:43:24.666Z,1.72
2023-01-17T02:48:56.231Z,1.73
2023-01-17T02:54:38.149Z,1.72
2023-01-17T03:00:24.581Z,1.73
2023-01-17T03:05:57.858Z,1.71
2023-01-17T03:11:29.056Z,1.71
2023-01-17T03:17:00.299Z,1.72
2023-01-17T03:22:31.536Z,1.73
2023-01-17T03:28:02.759Z,1.73
2023-01-17T03:33:33.840Z,1.74
2023-01-17T03:39:04.955Z,1.74
2023-01-17T03:44:35.908Z,1.75
2023-01-17T03:50:07.059Z,1.74
2023-01-17T03:55:38.173Z,1.73
2023-01-17T04:01:09.410Z,1.72
2023-01-17T04:06:40.427Z,1.72
2023-01-17T04:12:11.585Z,1.70
2023-01-17T04:17:42.573Z,1.70
2023-01-17T04:23:13.843Z,1.67
2023-01-17T04:28:46.760Z,1.66
2023-01-17T04:34:17.744Z,1.64
2023-01-17T04:39:49.031Z,1.63
2023-01-17T04:45:20.215Z,1.61
2023-01-17T04:50:51.397Z,1.62
2023-01-17T04:56:22.598Z,1.63
2023-01-17T05:01:53.393Z,1.63
2023-01-17T05:07:24.525Z,1.62
2023-01-17T05:12:56.388Z,1.59
2023-01-17T05:18:27.509Z,1.57
2023-01-17T05:23:58.776Z,1.56
2023-01-17T05:29:30.651Z,1.55
2023-01-17T05:35:02.962Z,1.54
2023-01-17T05:40:34.299Z,1.53
2023-01-17T05:46:05.325Z,1.51
2023-01-17T05:51:38.159Z,1.51
2023-01-17T05:57:09.508Z,1.47
2023-01-17T06:02:40.732Z,1.50
2023-01-17T06:08:11.809Z,1.47
2023-01-17T06:13:42.848Z,1.45
2023-01-17T06:19:13.807Z,1.44
2023-01-17T06:24:45.049Z,1.43
2023-01-17T06:30:16.435Z,1.41
2023-01-17T06:35:50.768Z,1.40
2023-01-17T06:41:23.419Z,1.38
2023-01-17T06:46:54.647Z,1.37
2023-01-17T06:52:25.760Z,1.36
2023-01-17T06:57:57.237Z,1.36
2023-01-17T07:03:28.228Z,1.32
2023-01-17T07:08:59.419Z,1.31
2023-01-17T07:14:30.843Z,1.31
2023-01-17T07:20:01.961Z,1.32
2023-01-17T07:25:33.241Z,1.36
2023-01-17T07:31:05.044Z,1.36
2023-01-17T07:36:35.757Z,1.36
2023-01-17T07:42:06.889Z,1.38
2023-01-17T07:47:38.920Z,1.34
2023-01-17T07:53:10.142Z,1.32
2023-01-17T07:58:41.115Z,1.34
2023-01-17T08:04:12.270Z,1.34
2023-01-17T08:09:43.800Z,1.33
2023-01-17T08:15:15.361Z,1.32
2023-01-17T08:20:46.507Z,1.32
2023-01-17T08:26:24.301Z,1.35
2023-01-17T08:31:55.581Z,1.40
2023-01-17T08:37:26.674Z,1.47
2023-01-17T08:42:59.010Z,1.47
2023-01-17T08:48:29.867Z,1.46
2023-01-17T08:54:01.549Z,1.49
2023-01-17T08:59:32.399Z,1.53
2023-01-17T09:05:03.614Z,1.60
2023-01-17T09:10:34.642Z,1.67
2023-01-17T09:16:06.234Z,1.74
2023-01-17T09:21:37.231Z,1.80
2023-01-17T09:27:08.419Z,1.84
2023-01-17T09:32:39.377Z,1.87
2023-01-17T09:38:10.662Z,1.92
2023-01-17T09:43:44.211Z,1.98
2023-01-17T09:49:15.116Z,2.05
2023-01-17T09:54:46.779Z,2.09
2023-01-17T10:00:32.394Z,2.13
2023-01-17T10:06:12.469Z,2.21
2023-01-17T10:11:47.418Z,2.27
2023-01-17T10:17:32.016Z,2.33
2023-01-17T10:23:15.660Z,2.35
2023-01-17T10:28:47.740Z,2.39
2023-01-17T10:34:19.578Z,2.42
2023-01-17T10:39:51.304Z,2.46
2023-01-17T10:45:26.980Z,2.50
2023-01-17T10:51:10.941Z,2.52
2023-01-17T10:56:42.180Z,2.58
2023-01-17T11:02:16.668Z,2.62
2023-01-17T11:07:58.315Z,2.69
2023-01-17T11:13:32.932Z,2.72
2023-01-17T11:19:08.835Z,2.76
2023-01-17T11:24:48.465Z,2.80
2023-01-17T11:30:20.765Z,2.85
2023-01-17T11:35:51.399Z,2.90
2023-01-17T11:41:22.669Z,2.96
2023-01-17T11:47:10.031Z,3.03
2023-01-17T11:52:41.850Z,3.09
2023-01-17T11:58:15.528Z,3.14
2023-01-17T12:03:52.797Z,3.21
2023-01-17T12:09:27.182Z,3.28
2023-01-17T12:15:03.541Z,3.34
2023-01-17T12:21:01.135Z,3.38
2023-01-17T12:26:32.347Z,3.43
2023-01-17T12:32:06.962Z,3.46
2023-01-17T12:37:38.615Z,3.52
2023-01-17T12:43:23.536Z,3.53
2023-01-17T12:48:56.482Z,3.56
2023-01-17T12:54:38.467Z,3.56
2023-01-17T13:00:23.486Z,3.56
2023-01-17T13:05:54.541Z,3.58
2023-01-17T13:11:28.937Z,3.63
2023-01-17T13:17:03.942Z,3.61
2023-01-17T13:22:35.568Z,3.62
2023-01-17T13:28:06.608Z,3.62
2023-01-17T13:33:47.521Z,3.62
2023-01-17T13:39:24.286Z,3.62
2023-01-17T13:44:55.791Z,3.62
2023-01-17T13:50:38.843Z,3.62
2023-01-17T13:56:11.983Z,3.61
2023-01-17T14:01:45.594Z,3.59
2023-01-17T14:07:19.095Z,3.58
2023-01-17T14:12:51.526Z,3.55
2023-01-17T14:18:41.154Z,3.53
2023-01-17T14:24:18.262Z,3.50
2023-01-17T14:29:51.062Z,3.48
2023-01-17T14:35:22.884Z,3.45
2023-01-17T14:40:55.088Z,3.43
2023-01-17T14:46:34.595Z,3.40
2023-01-17T14:52:06.678Z,3.37
2023-01-17T14:57:37.486Z,3.35
2023-01-17T15:03:10.861Z,3.30
2023-01-17T15:08:42.161Z,3.28
2023-01-17T15:14:15.727Z,3.24
2023-01-17T15:19:48.584Z,3.21
2023-01-17T15:25:19.401Z,3.20
2023-01-17T15:31:20.145Z,3.16
2023-01-17T15:36:51.036Z,3.12
2023-01-17T15:42:25.971Z,3.08
2023-01-17T15:47:57.777Z,3.06
2023-01-17T15:53:30.137Z,3.06
2023-01-17T15:59:39.583Z,3.02
2023-01-17T16:05:31.158Z,2.98
2023-01-17T16:11:03.464Z,2.93
2023-01-17T16:16:34.553Z,2.89
2023-01-17T16:22:05.631Z,2.85
2023-01-17T16:27:36.572Z,2.82
2023-01-17T16:33:09.260Z,2.78
2023-01-17T16:38:40.497Z,2.72
2023-01-17T16:44:11.520Z,2.67
2023-01-17T16:49:42.405Z,2.65
2023-01-17T16:55:14.317Z,2.58
2023-01-17T17:00:45.585Z,2.53
2023-01-17T17:06:17.319Z,2.48
2023-01-17T17:11:48.290Z,2.43
2023-01-17T17:17:19.443Z,2.44
2023-01-17T17:22:50.720Z,2.39
2023-01-17T17:28:21.651Z,2.37
2023-01-17T17:33:52.791Z,2.36
2023-01-17T17:39:23.799Z,2.34
2023-01-17T17:44:54.733Z,2.29
2023-01-17T17:50:25.919Z,2.26
2023-01-17T17:56:02.068Z,2.21
2023-01-17T18:01:32.989Z,2.17
2023-01-17T18:07:04.549Z,2.14
2023-01-17T18:12:35.912Z,2.11
2023-01-17T18:18:07.118Z,2.08
2023-01-17T18:23:39.155Z,2.06
2023-01-17T18:29:11.313Z,2.00
2023-01-17T18:34:42.514Z,1.95
2023-01-17T18:40:13.579Z,1.92
2023-01-17T18:45:44.985Z,1.91
2023-01-17T18:51:16.549Z,1.86
2023-01-17T18:56:48.384Z,1.82
2023-01-17T19:02:20.148Z,1.79
2023-01-17T19:07:51.067Z,1.79
2023-01-17T19:13:22.234Z,1.74
2023-01-17T19:18:53.516Z,1.70
2023-01-17T19:24:24.765Z,1.62
2023-01-17T19:29:55.798Z,1.58
2023-01-17T19:35:27.029Z,1.55
2023-01-17T19:40:58.144Z,1.43
2023-01-17T19:46:29.401Z,1.38
2023-01-17T19:52:00.625Z,1.38
2023-01-17T19:57:34.995Z,1.34
2023-01-17T20:03:05.898Z,1.32
2023-01-17T20:08:37.362Z,1.28
2023-01-17T20:14:09.470Z,1.30
2023-01-17T20:19:40.723Z,1.34
2023-01-17T20:25:12.422Z,1.36
2023-01-17T20:30:43.353Z,1.35
2023-01-17T20:36:15.205Z,1.32
2023-01-17T20:41:51.589Z,1.29
2023-01-17T20:47:22.429Z,1.30
2023-01-17T20:52:53.539Z,1.26
2023-01-17T20:58:24.918Z,1.24
2023-01-17T21:03:56.153Z,1.25
2023-01-17T21:09:27.260Z,1.24
2023-01-17T21:14:58.504Z,1.21
2023-01-17T21:20:29.521Z,1.18
2023-01-17T21:26:00.632Z,1.17
2023-01-17T21:31:34.981Z,1.12
2023-01-17T21:37:05.997Z,1.12
2023-01-17T21:42:37.083Z,1.12
2023-01-17T21:48:12.301Z,1.09
2023-01-17T21:53:43.428Z,1.08
2023-01-17T21:59:14.286Z,1.07
2023-01-17T22:04:45.475Z,1.05
2023-01-17T22:10:16.907Z,1.06
2023-01-17T22:15:57.108Z,1.06
2023-01-17T22:21:31.029Z,1.05
2023-01-17T22:27:02.134Z,1.06
2023-01-17T22:32:33.177Z,1.04
2023-01-17T22:38:03.917Z,1.02
2023-01-17T22:43:39.049Z,1.03
2023-01-17T22:49:13.469Z,1.03
2023-01-17T22:54:44.216Z,1.03
2023-01-17T23:00:15.507Z,1.01
2023-01-17T23:05:46.893Z,1.02
2023-01-17T23:11:36.902Z,1.02
2023-01-17T23:17:26.847Z,1.02
2023-01-17T23:22:58.193Z,1.01
2023-01-17T23:28:29.360Z,1.02
2023-01-17T23:34:00.544Z,1.00
2023-01-17T23:39:31.559Z,1.00
2023-01-17T23:45:02.784Z,0.99
2023-01-17T23:50:33.971Z,0.99
2023-01-17T23:56:15.179Z,1.00
